createdAt,value
2023-03-25T00:02:27.329Z,45514.13
2023-03-25T00:04:54.894Z,45506.16
2023-03-25T00:07:21.950Z,45514.13
2023-03-25T00:09:48.715Z,45510.16
2023-03-25T00:12:18.446Z,45492.16
2023-03-25T00:14:54.318Z,45516.13
2023-03-25T00:17:22.371Z,45498.16
2023-03-25T00:19:51.823Z,45510.16
2023-03-25T00:22:19.071Z,45510.16
2023-03-25T00:24:45.515Z,45494.16
2023-03-25T00:27:14.224Z,45496.16
2023-03-25T00:29:42.112Z,45506.16
2023-03-25T00:32:08.575Z,45506.16
2023-03-25T00:34:35.153Z,45518.13
2023-03-25T00:37:04.920Z,45500.16
2023-03-25T00:39:31.443Z,45526.13
2023-03-25T00:41:59.020Z,45518.13
2023-03-25T00:44:25.401Z,45502.16
2023-03-25T00:46:51.765Z,45522.13
2023-03-25T00:49:18.618Z,45496.16
2023-03-25T00:51:53.226Z,45498.16
2023-03-25T00:54:22.120Z,45512.16
2023-03-25T00:56:49.689Z,45512.16
2023-03-25T00:59:16.229Z,45498.16
2023-03-25T01:01:43.476Z,45498.16
2023-03-25T01:04:12.508Z,45524.13
2023-03-25T01:06:43.779Z,45486.16
2023-03-25T01:09:13.767Z,45506.16
2023-03-25T01:11:43.894Z,45506.16
2023-03-25T01:14:14.681Z,45502.16
2023-03-25T01:16:41.080Z,45502.16
2023-03-25T01:19:07.706Z,45516.13
2023-03-25T01:21:36.508Z,45494.16
2023-03-25T01:24:04.983Z,45518.13
2023-03-25T01:26:31.530Z,45500.16
2023-03-25T01:28:58.387Z,45508.16
2023-03-25T01:31:30.081Z,45488.16
2023-03-25T01:33:58.025Z,45502.16
2023-03-25T01:36:29.290Z,45496.16
2023-03-25T01:38:58.839Z,45490.16
2023-03-25T01:41:39.091Z,45496.16
2023-03-25T01:44:18.299Z,45506.16
2023-03-25T01:46:45.416Z,45514.13
2023-03-25T01:49:27.250Z,45474.16
2023-03-25T01:51:59.563Z,45506.16
2023-03-25T01:54:27.405Z,45490.16
2023-03-25T01:56:55.879Z,45514.13
2023-03-25T01:59:27.013Z,45510.16
2023-03-25T02:01:55.869Z,45502.16
2023-03-25T02:04:44.131Z,45498.16
2023-03-25T02:07:11.352Z,45506.16
2023-03-25T02:09:38.962Z,45522.13
2023-03-25T02:12:07.258Z,45506.16
2023-03-25T02:14:36.151Z,45522.13
2023-03-25T02:17:12.447Z,45506.16
2023-03-25T02:20:09.154Z,45508.16
2023-03-25T02:23:09.878Z,45486.16
2023-03-25T02:25:39.531Z,45514.13
2023-03-25T02:28:17.794Z,45502.16
2023-03-25T02:30:52.283Z,45510.16
2023-03-25T02:33:22.079Z,45510.16
2023-03-25T02:36:03.949Z,45518.13
2023-03-25T02:38:55.706Z,45498.16
2023-03-25T02:41:25.784Z,45520.13
2023-03-25T02:44:05.319Z,45506.16
2023-03-25T02:46:33.476Z,45506.16
2023-03-25T02:49:09.010Z,45514.13
2023-03-25T02:51:42.500Z,45526.13
2023-03-25T02:54:11.065Z,45516.13
2023-03-25T02:56:40.461Z,45538.13
2023-03-25T02:59:08.412Z,45530.13
2023-03-25T03:01:36.227Z,45524.13
2023-03-25T03:04:03.090Z,45518.13
2023-03-25T03:06:29.619Z,45514.13
2023-03-25T03:08:56.226Z,45498.16
2023-03-25T03:11:57.346Z,45506.16
2023-03-25T03:14:26.687Z,45530.13
2023-03-25T03:17:18.314Z,45502.16
2023-03-25T03:19:55.481Z,45514.13
2023-03-25T03:23:02.007Z,45506.16
2023-03-25T03:25:45.590Z,45502.16
2023-03-25T03:28:38.933Z,45526.13
2023-03-25T03:31:48.429Z,45516.13
2023-03-25T03:34:18.789Z,45516.13
2023-03-25T03:36:49.914Z,45514.13
2023-03-25T03:39:24.858Z,45512.16
2023-03-25T03:41:56.184Z,45520.13
2023-03-25T03:44:29.474Z,45538.13
2023-03-25T03:47:05.422Z,45508.16
2023-03-25T03:49:57.934Z,45502.16
2023-03-25T03:52:34.002Z,45516.13
2023-03-25T03:55:05.154Z,45498.16
2023-03-25T03:57:56.109Z,45522.13
2023-03-25T04:00:28.762Z,45534.13
2023-03-25T04:03:05.121Z,45516.13
2023-03-25T04:05:32.357Z,45526.13
2023-03-25T04:08:04.360Z,45528.13
2023-03-25T04:10:40.338Z,45514.13
2023-03-25T04:13:13.961Z,45526.13
2023-03-25T04:15:41.291Z,45534.13
2023-03-25T04:18:08.170Z,45518.13
2023-03-25T04:20:36.400Z,45516.13
2023-03-25T04:23:09.625Z,45526.13
2023-03-25T04:25:36.010Z,45528.13
2023-03-25T04:28:02.377Z,45514.13
2023-03-25T04:30:29.282Z,45528.13
2023-03-25T04:32:56.457Z,45548.13
2023-03-25T04:35:23.111Z,45514.13
2023-03-25T04:37:49.556Z,45514.13
2023-03-25T04:40:18.617Z,45540.13
2023-03-25T04:42:47.150Z,45526.13
2023-03-25T04:45:16.668Z,45534.13
2023-03-25T04:47:47.062Z,45518.13
2023-03-25T04:50:27.139Z,45506.16
2023-03-25T04:52:54.488Z,45514.13
2023-03-25T04:55:21.498Z,45516.13
2023-03-25T04:57:52.843Z,45500.16
2023-03-25T05:00:22.199Z,45530.13
2023-03-25T05:02:51.737Z,45510.16
2023-03-25T05:05:20.923Z,45522.13
2023-03-25T05:07:49.587Z,45530.13
2023-03-25T05:10:21.888Z,45528.13
2023-03-25T05:12:48.991Z,45530.13
2023-03-25T05:15:19.749Z,45526.13
2023-03-25T05:17:46.252Z,45530.13
2023-03-25T05:20:14.635Z,45526.13
2023-03-25T05:22:41.958Z,45526.13
2023-03-25T05:25:10.161Z,45542.13
2023-03-25T05:27:37.771Z,45534.13
2023-03-25T05:30:05.367Z,45546.13
2023-03-25T05:32:34.398Z,45510.16
2023-03-25T05:35:02.196Z,45518.13
2023-03-25T05:37:29.075Z,45514.13
2023-03-25T05:39:56.330Z,45526.13
2023-03-25T05:42:22.949Z,45506.16
2023-03-25T05:44:53.749Z,45510.16
2023-03-25T05:47:23.355Z,45510.16
2023-03-25T05:49:51.954Z,45514.13
2023-03-25T05:52:19.503Z,45538.13
2023-03-25T05:54:50.639Z,45530.13
2023-03-25T05:57:17.164Z,45514.13
2023-03-25T05:59:43.734Z,45518.13
2023-03-25T06:02:15.680Z,45522.13
2023-03-25T06:04:42.818Z,45518.13
2023-03-25T06:07:14.540Z,45530.13
2023-03-25T06:09:46.147Z,45524.13
2023-03-25T06:12:17.623Z,45518.13
2023-03-25T06:14:45.702Z,45522.13
2023-03-25T06:17:18.900Z,45514.13
2023-03-25T06:19:45.715Z,45534.13
2023-03-25T06:22:12.454Z,45528.13
2023-03-25T06:24:40.142Z,45524.13
2023-03-25T06:27:12.108Z,45522.13
2023-03-25T06:29:38.698Z,45504.16
2023-03-25T06:32:05.843Z,45518.13
2023-03-25T06:34:35.186Z,45530.13
2023-03-25T06:37:02.279Z,45526.13
2023-03-25T06:39:33.597Z,45514.13
2023-03-25T06:42:04.620Z,45518.13
2023-03-25T06:44:48.272Z,45506.16
2023-03-25T06:47:35.373Z,45522.13
2023-03-25T06:50:02.053Z,45540.13
2023-03-25T06:52:28.664Z,45512.16
2023-03-25T06:54:55.467Z,45510.16
2023-03-25T06:57:21.942Z,45512.16
2023-03-25T06:59:49.624Z,45518.13
2023-03-25T07:02:16.096Z,45526.13
2023-03-25T07:04:42.473Z,45504.16
2023-03-25T07:07:09.613Z,45530.13
2023-03-25T07:09:36.058Z,45494.16
2023-03-25T07:12:03.579Z,45512.16
2023-03-25T07:14:30.279Z,45530.13
2023-03-25T07:16:56.683Z,45526.13
2023-03-25T07:19:23.176Z,45510.16
2023-03-25T07:21:49.596Z,45516.13
2023-03-25T07:24:16.040Z,45524.13
2023-03-25T07:26:42.388Z,45516.13
2023-03-25T07:29:10.559Z,45518.13
2023-03-25T07:31:37.216Z,45514.13
2023-03-25T07:34:04.808Z,45504.16
2023-03-25T07:36:31.227Z,45518.13
2023-03-25T07:38:57.717Z,45516.13
2023-03-25T07:41:24.220Z,45506.16
2023-03-25T07:44:12.284Z,45530.13
2023-03-25T07:46:39.158Z,45508.16
2023-03-25T07:49:05.534Z,45524.13
2023-03-25T07:51:34.256Z,45522.13
2023-03-25T07:54:04.904Z,45518.13
2023-03-25T07:56:31.724Z,45518.13
2023-03-25T07:58:58.152Z,45534.13
2023-03-25T08:01:24.546Z,45510.16
2023-03-25T08:03:51.032Z,45510.16
2023-03-25T08:06:17.732Z,45508.16
2023-03-25T08:08:44.788Z,45522.13
2023-03-25T08:11:11.614Z,45508.16
2023-03-25T08:13:38.687Z,45500.16
2023-03-25T08:16:12.268Z,45514.13
2023-03-25T08:18:38.994Z,45518.13
2023-03-25T08:21:05.969Z,45506.16
2023-03-25T08:23:36.773Z,45510.16
2023-03-25T08:26:05.513Z,45474.16
2023-03-25T08:28:33.231Z,45522.13
2023-03-25T08:31:02.360Z,45502.16
2023-03-25T08:33:39.408Z,45498.16
2023-03-25T08:36:06.617Z,45486.16
2023-03-25T08:38:34.901Z,45490.16
2023-03-25T08:41:02.792Z,45494.16
2023-03-25T08:43:29.175Z,45490.16
2023-03-25T08:45:55.603Z,45490.16
2023-03-25T08:48:22.985Z,45470.19
2023-03-25T08:50:49.385Z,45494.16
2023-03-25T08:53:15.976Z,45498.16
2023-03-25T08:55:42.763Z,45488.16
2023-03-25T08:58:09.220Z,45486.16
2023-03-25T09:00:37.701Z,45486.16
2023-03-25T09:03:05.280Z,45502.16
2023-03-25T09:05:32.094Z,45484.16
2023-03-25T09:07:58.589Z,45494.16
2023-03-25T09:10:25.170Z,45506.16
2023-03-25T09:12:51.955Z,45508.16
2023-03-25T09:15:18.453Z,45488.16
2023-03-25T09:17:45.180Z,45486.16
2023-03-25T09:20:12.335Z,45484.16
2023-03-25T09:22:39.274Z,45506.16
2023-03-25T09:25:06.858Z,45492.16
2023-03-25T09:27:33.891Z,45502.16
2023-03-25T09:30:00.347Z,45494.16
2023-03-25T09:32:27.184Z,45470.19
2023-03-25T09:34:54.142Z,45474.16
2023-03-25T09:37:20.597Z,45494.16
2023-03-25T09:39:47.112Z,45494.16
2023-03-25T09:42:55.376Z,45478.16
2023-03-25T09:45:36.745Z,45500.16
2023-03-25T09:48:15.716Z,45486.16
2023-03-25T09:50:44.194Z,45466.19
2023-03-25T09:53:30.999Z,45486.16
2023-03-25T09:55:57.838Z,45472.16
2023-03-25T09:58:45.445Z,45488.16
2023-03-25T10:01:45.850Z,45474.16
2023-03-25T10:04:31.132Z,45478.16
2023-03-25T10:07:25.902Z,45490.16
2023-03-25T10:10:05.386Z,45502.16
2023-03-25T10:12:47.158Z,45498.16
2023-03-25T10:15:40.476Z,45496.16
2023-03-25T10:18:22.254Z,45490.16
2023-03-25T10:21:11.435Z,45504.16
2023-03-25T10:23:45.702Z,45478.16
2023-03-25T10:26:24.910Z,45478.16
2023-03-25T10:29:01.197Z,45506.16
2023-03-25T10:31:31.861Z,45494.16
2023-03-25T10:34:05.549Z,45470.19
2023-03-25T10:36:35.825Z,45494.16
2023-03-25T10:39:10.824Z,45482.16
2023-03-25T10:41:40.782Z,45470.19
2023-03-25T10:44:11.168Z,45494.16
2023-03-25T10:46:47.658Z,45476.16
2023-03-25T10:49:21.287Z,45490.16
2023-03-25T10:51:53.731Z,45478.16
2023-03-25T10:54:24.044Z,45502.16
2023-03-25T10:56:52.977Z,45496.16
2023-03-25T10:59:34.813Z,45500.16
2023-03-25T11:02:10.381Z,45502.16
2023-03-25T11:04:40.952Z,45486.16
2023-03-25T11:07:20.670Z,45476.16
2023-03-25T11:09:47.400Z,45462.19
2023-03-25T11:12:19.698Z,45466.19
2023-03-25T11:14:56.721Z,45468.19
2023-03-25T11:17:27.088Z,45448.19
2023-03-25T11:19:57.245Z,45434.19
2023-03-25T11:22:29.298Z,45426.22
2023-03-25T11:25:03.259Z,45426.22
2023-03-25T11:27:30.437Z,45426.22
2023-03-25T11:30:02.942Z,45418.22
2023-03-25T11:32:38.422Z,45422.22
2023-03-25T11:35:26.817Z,45390.25
2023-03-25T11:38:02.567Z,45396.22
2023-03-25T11:40:31.066Z,45372.25
2023-03-25T11:42:59.753Z,45374.25
2023-03-25T11:45:35.898Z,45372.25
2023-03-25T11:48:11.385Z,45374.25
2023-03-25T11:50:38.127Z,45344.28
2023-03-25T11:53:06.283Z,45354.25
2023-03-25T11:55:43.763Z,45364.25
2023-03-25T11:58:16.030Z,45388.25
2023-03-25T12:00:51.663Z,45396.22
2023-03-25T12:03:26.594Z,45386.25
2023-03-25T12:06:01.232Z,45422.22
2023-03-25T12:08:43.536Z,45368.25
2023-03-25T12:11:16.625Z,45372.25
2023-03-25T12:14:03.983Z,45374.25
2023-03-25T12:16:43.981Z,45372.25
2023-03-25T12:19:35.572Z,45378.25
2023-03-25T12:22:10.739Z,45374.25
2023-03-25T12:24:37.150Z,45374.25
2023-03-25T12:27:11.002Z,45372.25
2023-03-25T12:30:02.631Z,45366.25
2023-03-25T12:32:53.518Z,45376.25
2023-03-25T12:35:47.119Z,45356.25
2023-03-25T12:38:51.264Z,45330.28
2023-03-25T12:41:35.195Z,45330.28
2023-03-25T12:44:13.958Z,45330.28
2023-03-25T12:46:58.633Z,45362.25
2023-03-25T12:50:16.422Z,45346.28
2023-03-25T12:53:04.252Z,45334.28
2023-03-25T12:55:33.335Z,45362.25
2023-03-25T12:58:48.032Z,45364.25
2023-03-25T13:01:59.557Z,45358.25
2023-03-25T13:04:49.235Z,45342.28
2023-03-25T13:07:22.451Z,45318.28
2023-03-25T13:10:34.022Z,45342.28
2023-03-25T13:13:08.257Z,45358.25
2023-03-25T13:15:43.948Z,45352.28
2023-03-25T13:18:28.242Z,45356.25
2023-03-25T13:21:13.022Z,45354.25
2023-03-25T13:23:42.484Z,45364.25
2023-03-25T13:26:12.112Z,45344.28
2023-03-25T13:29:07.072Z,45342.28
2023-03-25T13:31:42.427Z,45346.28
2023-03-25T13:34:35.121Z,45350.28
2023-03-25T13:37:23.302Z,45366.25
2023-03-25T13:40:13.256Z,45378.25
2023-03-25T13:42:48.222Z,45394.22
2023-03-25T13:45:18.925Z,45392.22
2023-03-25T13:48:03.902Z,45402.22
2023-03-25T13:50:31.896Z,45422.22
2023-03-25T13:53:14.785Z,45408.22
2023-03-25T13:55:48.215Z,45402.22
2023-03-25T13:58:37.803Z,45410.22
2023-03-25T14:01:32.188Z,45428.22
2023-03-25T14:04:31.399Z,45434.19
2023-03-25T14:07:24.269Z,45438.19
2023-03-25T14:10:38.740Z,45418.22
2023-03-25T14:13:10.703Z,45454.19
2023-03-25T14:15:41.121Z,45458.19
2023-03-25T14:18:16.721Z,45458.19
2023-03-25T14:20:43.839Z,45450.19
2023-03-25T14:23:18.285Z,45474.16
2023-03-25T14:25:49.832Z,45466.19
2023-03-25T14:28:33.352Z,45482.16
2023-03-25T14:31:12.048Z,45490.16
2023-03-25T14:34:00.676Z,45484.16
2023-03-25T14:36:39.265Z,45474.16
2023-03-25T14:39:32.080Z,45466.19
2023-03-25T14:42:02.785Z,45474.16
2023-03-25T14:44:32.843Z,45478.16
2023-03-25T14:47:24.964Z,45478.16
2023-03-25T14:50:04.839Z,45482.16
2023-03-25T14:52:37.546Z,45482.16
2023-03-25T14:55:45.375Z,45468.19
2023-03-25T14:58:24.621Z,45474.16
2023-03-25T15:00:58.872Z,45486.16
2023-03-25T15:03:37.491Z,45468.19
2023-03-25T15:06:06.683Z,45488.16
2023-03-25T15:08:41.784Z,45498.16
2023-03-25T15:11:16.784Z,45486.16
2023-03-25T15:13:54.220Z,45466.19
2023-03-25T15:16:26.703Z,45486.16
2023-03-25T15:18:53.089Z,45478.16
2023-03-25T15:21:23.625Z,45468.19
2023-03-25T15:23:59.221Z,45482.16
2023-03-25T15:26:39.272Z,45466.19
2023-03-25T15:29:24.099Z,45470.19
2023-03-25T15:32:19.668Z,45466.19
2023-03-25T15:35:28.186Z,45458.19
2023-03-25T15:38:07.749Z,45426.22
2023-03-25T15:40:45.310Z,45470.19
2023-03-25T15:43:59.450Z,45444.19
2023-03-25T15:46:32.227Z,45452.19
2023-03-25T15:49:11.671Z,45444.19
2023-03-25T15:51:46.772Z,45474.16
2023-03-25T15:54:35.685Z,45468.19
2023-03-25T15:57:16.983Z,45428.22
2023-03-25T15:59:51.546Z,45458.19
2023-03-25T16:02:26.629Z,45448.19
2023-03-25T16:04:53.569Z,45438.19
2023-03-25T16:07:24.527Z,45446.19
2023-03-25T16:09:51.629Z,45446.19
2023-03-25T16:12:25.341Z,45456.19
2023-03-25T16:14:52.972Z,45436.19
2023-03-25T16:17:22.616Z,45442.19
2023-03-25T16:19:55.083Z,45458.19
2023-03-25T16:22:35.596Z,45456.19
2023-03-25T16:25:06.576Z,45454.19
2023-03-25T16:27:42.025Z,45446.19
2023-03-25T16:30:36.503Z,45436.19
2023-03-25T16:33:12.095Z,45458.19
2023-03-25T16:35:41.757Z,45442.19
2023-03-25T16:38:13.193Z,45442.19
2023-03-25T16:40:41.418Z,45436.19
2023-03-25T16:43:20.512Z,45442.19
2023-03-25T16:45:48.895Z,45450.19
2023-03-25T16:48:19.373Z,45430.22
2023-03-25T16:50:46.218Z,45442.19
2023-03-25T16:53:15.851Z,45430.22
2023-03-25T16:55:50.630Z,45446.19
2023-03-25T16:58:21.046Z,45448.19
2023-03-25T17:00:51.714Z,45446.19
2023-03-25T17:03:38.817Z,45446.19
2023-03-25T17:06:19.446Z,45444.19
2023-03-25T17:08:50.819Z,45472.16
2023-03-25T17:11:17.252Z,45458.19
2023-03-25T17:13:51.785Z,45454.19
2023-03-25T17:16:19.947Z,45460.19
2023-03-25T17:18:49.691Z,45436.19
2023-03-25T17:21:30.043Z,45462.19
2023-03-25T17:24:00.867Z,45460.19
2023-03-25T17:26:33.511Z,45462.19
2023-03-25T17:29:06.100Z,45474.16
2023-03-25T17:31:40.861Z,45478.16
2023-03-25T17:34:26.340Z,45490.16
2023-03-25T17:36:58.021Z,45470.19
2023-03-25T17:39:27.788Z,45476.16
2023-03-25T17:42:00.449Z,45478.16
2023-03-25T17:44:37.492Z,45502.16
2023-03-25T17:47:05.551Z,45462.19
2023-03-25T17:49:31.969Z,45474.16
2023-03-25T17:51:58.690Z,45482.16
2023-03-25T17:54:26.027Z,45494.16
2023-03-25T17:56:53.049Z,45498.16
2023-03-25T17:59:22.262Z,45492.16
2023-03-25T18:01:49.820Z,45482.16
2023-03-25T18:04:18.171Z,45486.16
2023-03-25T18:06:44.781Z,45474.16
2023-03-25T18:09:24.700Z,45502.16
2023-03-25T18:11:55.758Z,45466.19
2023-03-25T18:14:24.178Z,45490.16
2023-03-25T18:16:51.564Z,45482.16
2023-03-25T18:19:21.071Z,45492.16
2023-03-25T18:21:47.990Z,45502.16
2023-03-25T18:24:15.102Z,45486.16
2023-03-25T18:26:43.383Z,45484.16
2023-03-25T18:29:24.783Z,45488.16
2023-03-25T18:31:51.924Z,45480.16
2023-03-25T18:34:20.430Z,45498.16
2023-03-25T18:36:46.825Z,45464.19
2023-03-25T18:39:19.249Z,45470.19
2023-03-25T18:41:45.983Z,45508.16
2023-03-25T18:44:13.358Z,45498.16
2023-03-25T18:46:40.219Z,45480.16
2023-03-25T18:49:13.198Z,45490.16
2023-03-25T18:51:40.076Z,45502.16
2023-03-25T18:54:06.952Z,45498.16
2023-03-25T18:56:33.625Z,45502.16
2023-03-25T18:59:00.141Z,45498.16
2023-03-25T19:01:26.773Z,45490.16
2023-03-25T19:03:53.235Z,45498.16
2023-03-25T19:06:19.666Z,45480.16
2023-03-25T19:08:47.044Z,45502.16
2023-03-25T19:11:20.655Z,45516.13
2023-03-25T19:13:47.792Z,45484.16
2023-03-25T19:16:14.269Z,45482.16
2023-03-25T19:18:40.711Z,45516.13
2023-03-25T19:21:07.322Z,45496.16
2023-03-25T19:23:35.178Z,45508.16
2023-03-25T19:26:02.168Z,45518.13
2023-03-25T19:28:29.016Z,45504.16
2023-03-25T19:31:00.323Z,45504.16
2023-03-25T19:33:30.798Z,45502.16
2023-03-25T19:35:59.600Z,45490.16
2023-03-25T19:38:26.059Z,45512.16
2023-03-25T19:41:10.292Z,45506.16
2023-03-25T19:43:36.747Z,45494.16
2023-03-25T19:46:05.358Z,45514.13
2023-03-25T19:48:32.172Z,45510.16
2023-03-25T19:50:58.679Z,45518.13
2023-03-25T19:53:27.165Z,45526.13
2023-03-25T19:55:54.687Z,45506.16
2023-03-25T19:58:23.313Z,45494.16
2023-03-25T20:00:50.415Z,45518.13
2023-03-25T20:03:17.344Z,45514.13
2023-03-25T20:05:43.793Z,45524.13
2023-03-25T20:08:11.601Z,45510.16
2023-03-25T20:10:39.149Z,45530.13
2023-03-25T20:13:06.732Z,45518.13
2023-03-25T20:15:33.378Z,45516.13
2023-03-25T20:18:00.282Z,45538.13
2023-03-25T20:20:27.118Z,45550.13
2023-03-25T20:22:53.821Z,45544.13
2023-03-25T20:25:20.485Z,45534.13
2023-03-25T20:27:47.280Z,45536.13
2023-03-25T20:30:17.867Z,45538.13
2023-03-25T20:32:46.552Z,45546.13
2023-03-25T20:35:15.773Z,45538.13
2023-03-25T20:37:44.034Z,45534.13
2023-03-25T20:40:14.207Z,45554.09
2023-03-25T20:42:42.924Z,45550.13
2023-03-25T20:45:11.424Z,45546.13
2023-03-25T20:47:38.349Z,45548.13
2023-03-25T20:50:05.816Z,45550.13
2023-03-25T20:52:32.286Z,45550.13
2023-03-25T20:54:59.056Z,45542.13
2023-03-25T20:57:25.604Z,45558.09
2023-03-25T20:59:56.271Z,45574.09
2023-03-25T21:02:23.922Z,45558.09
2023-03-25T21:04:50.864Z,45542.13
2023-03-25T21:07:19.117Z,45552.13
2023-03-25T21:09:47.582Z,45566.09
2023-03-25T21:12:13.951Z,45548.13
2023-03-25T21:14:40.670Z,45568.09
2023-03-25T21:17:07.134Z,45560.09
2023-03-25T21:19:33.711Z,45564.09
2023-03-25T21:22:00.446Z,45548.13
2023-03-25T21:24:26.946Z,45554.09
2023-03-25T21:26:53.492Z,45574.09
2023-03-25T21:29:20.836Z,45574.09
2023-03-25T21:31:47.639Z,45582.09
2023-03-25T21:34:15.701Z,45558.09
2023-03-25T21:36:43.248Z,45568.09
2023-03-25T21:39:10.214Z,45574.09
2023-03-25T21:41:36.674Z,45554.09
2023-03-25T21:44:03.322Z,45582.09
2023-03-25T21:46:29.754Z,45560.09
2023-03-25T21:48:58.484Z,45566.09
2023-03-25T21:51:26.337Z,45582.09
2023-03-25T21:53:53.143Z,45560.09
2023-03-25T21:56:21.393Z,45570.09
2023-03-25T21:58:48.488Z,45562.09
2023-03-25T22:01:28.308Z,45568.09
2023-03-25T22:03:57.154Z,45562.09
2023-03-25T22:06:27.112Z,45558.09
2023-03-25T22:08:56.800Z,45564.09
2023-03-25T22:11:26.095Z,45584.09
2023-03-25T22:13:52.579Z,45568.09
2023-03-25T22:16:21.101Z,45590.09
2023-03-25T22:18:48.877Z,45566.09
2023-03-25T22:21:24.544Z,45562.09
2023-03-25T22:23:54.589Z,45572.09
2023-03-25T22:26:23.025Z,45604.06
2023-03-25T22:28:54.140Z,45556.09
2023-03-25T22:31:25.963Z,45558.09
2023-03-25T22:33:54.899Z,45562.09
2023-03-25T22:36:21.431Z,45570.09
2023-03-25T22:38:52.037Z,45570.09
2023-03-25T22:41:18.854Z,45564.09
2023-03-25T22:43:46.361Z,45562.09
2023-03-25T22:46:13.742Z,45582.09
2023-03-25T22:48:40.851Z,45562.09
2023-03-25T22:51:09.356Z,45556.09
2023-03-25T22:53:35.832Z,45584.09
2023-03-25T22:56:02.417Z,45582.09
2023-03-25T22:58:31.406Z,45584.09
2023-03-25T23:01:01.440Z,45556.09
2023-03-25T23:03:28.661Z,45584.09
2023-03-25T23:06:01.796Z,45574.09
2023-03-25T23:08:31.321Z,45582.09
2023-03-25T23:11:08.272Z,45578.09
2023-03-25T23:13:35.471Z,45566.09
2023-03-25T23:16:04.650Z,45576.09
2023-03-25T23:18:31.762Z,45574.09
2023-03-25T23:21:02.618Z,45554.09
2023-03-25T23:23:29.511Z,45554.09
2023-03-25T23:26:16.965Z,45564.09
2023-03-25T23:28:45.360Z,45586.09
2023-03-25T23:31:22.184Z,45566.09
2023-03-25T23:33:50.798Z,45574.09
2023-03-25T23:36:21.167Z,45562.09
2023-03-25T23:38:48.030Z,45542.13
2023-03-25T23:41:16.820Z,45566.09
2023-03-25T23:43:43.775Z,45560.09
2023-03-25T23:46:12.155Z,45556.09
2023-03-25T23:48:42.511Z,45558.09
2023-03-25T23:51:17.437Z,45566.09
2023-03-25T23:53:46.837Z,45564.09
2023-03-25T23:56:15.852Z,45574.09
2023-03-25T23:58:43.094Z,45552.13
